sensor_id;sensor_type;location;lat;lon;timestamp;pressure;altitude;pressure_sealevel;temperature;humidity
62800;BME280;48842;51.046;13.796;2023-08-06T00:01:36;99575.66;;;20.54;65.65
62800;BME280;48842;51.046;13.796;2023-08-06T00:04:01;99566.75;;;20.55;65.70
62800;BME280;48842;51.046;13.796;2023-08-06T00:06:27;99557.81;;;20.56;65.44
62800;BME280;48842;51.046;13.796;2023-08-06T00:08:52;99538.22;;;20.57;65.44
62800;BME280;48842;51.046;13.796;2023-08-06T00:11:17;99537.38;;;20.56;65.41
62800;BME280;48842;51.046;13.796;2023-08-06T00:13:42;99532.16;;;20.55;65.70
62800;BME280;48842;51.046;13.796;2023-08-06T00:16:09;99532.16;;;20.55;65.81
62800;BME280;48842;51.046;13.796;2023-08-06T00:18:35;99525.94;;;20.54;65.77
62800;BME280;48842;51.046;13.796;2023-08-06T00:21:01;99521.59;;;20.53;65.79
62800;BME280;48842;51.046;13.796;2023-08-06T00:23:27;99517.09;;;20.54;65.87
62800;BME280;48842;51.046;13.796;2023-08-06T00:25:52;99520.69;;;20.53;65.70
62800;BME280;48842;51.046;13.796;2023-08-06T00:28:17;99512.72;;;20.53;66.10
62800;BME280;48842;51.046;13.796;2023-08-06T00:30:44;99519.75;;;20.54;65.86
62800;BME280;48842;51.046;13.796;2023-08-06T00:33:09;99520.56;;;20.56;66.09
62800;BME280;48842;51.046;13.796;2023-08-06T00:35:34;99515.25;;;20.56;65.61
62800;BME280;48842;51.046;13.796;2023-08-06T00:37:59;99518.84;;;20.55;66.03
62800;BME280;48842;51.046;13.796;2023-08-06T00:40:25;99518.84;;;20.55;65.77
62800;BME280;48842;51.046;13.796;2023-08-06T00:42:50;99516.19;;;20.55;65.72
62800;BME280;48842;51.046;13.796;2023-08-06T00:45:15;99509.94;;;20.56;65.96
62800;BME280;48842;51.046;13.796;2023-08-06T00:47:41;99509.13;;;20.54;65.87
62800;BME280;48842;51.046;13.796;2023-08-06T00:50:07;99499.41;;;20.53;65.85
62800;BME280;48842;51.046;13.796;2023-08-06T00:52:34;99507.47;;;20.51;66.22
62800;BME280;48842;51.046;13.796;2023-08-06T00:54:59;99505.78;;;20.50;65.77
62800;BME280;48842;51.046;13.796;2023-08-06T00:57:25;99504.03;;;20.49;65.93
62800;BME280;48842;51.046;13.796;2023-08-06T00:59:52;99490.81;;;20.48;66.12
62800;BME280;48842;51.046;13.796;2023-08-06T01:02:17;99493.47;;;20.48;66.00
62800;BME280;48842;51.046;13.796;2023-08-06T01:04:43;99488.94;;;20.50;66.03
62800;BME280;48842;51.046;13.796;2023-08-06T01:07:25;99480.94;;;20.50;66.36
62800;BME280;48842;51.046;13.796;2023-08-06T01:10:08;99481.09;;;20.47;66.17
62800;BME280;48842;51.046;13.796;2023-08-06T01:12:52;99474.84;;;20.48;66.43
62800;BME280;48842;51.046;13.796;2023-08-06T01:15:32;99462.25;;;20.51;66.15
62800;BME280;48842;51.046;13.796;2023-08-06T01:18:00;99460.47;;;20.52;65.96
62800;BME280;48842;51.046;13.796;2023-08-06T01:20:30;99465.06;;;20.48;66.00
62800;BME280;48842;51.046;13.796;2023-08-06T01:22:55;99456.06;;;20.51;66.19
62800;BME280;48842;51.046;13.796;2023-08-06T01:25:21;99453.41;;;20.51;66.03
62800;BME280;48842;51.046;13.796;2023-08-06T01:27:55;99446.44;;;20.48;66.05
62800;BME280;48842;51.046;13.796;2023-08-06T01:30:29;99440.19;;;20.49;65.93
62800;BME280;48842;51.046;13.796;2023-08-06T01:32:58;99439.34;;;20.49;65.77
62800;BME280;48842;51.046;13.796;2023-08-06T01:35:26;99431.34;;;20.49;65.73
62800;BME280;48842;51.046;13.796;2023-08-06T01:37:52;99431.44;;;20.47;65.65
62800;BME280;48842;51.046;13.796;2023-08-06T01:40:18;99433.13;;;20.48;65.88
62800;BME280;48842;51.046;13.796;2023-08-06T01:42:43;99427.72;;;20.50;65.85
62800;BME280;48842;51.046;13.796;2023-08-06T01:45:09;99434.88;;;20.49;65.50
62800;BME280;48842;51.046;13.796;2023-08-06T01:47:35;99426.03;;;20.49;65.70
62800;BME280;48842;51.046;13.796;2023-08-06T01:50:01;99431.44;;;20.47;65.57
62800;BME280;48842;51.046;13.796;2023-08-06T01:52:26;99426.97;;;20.48;65.68
62800;BME280;48842;51.046;13.796;2023-08-06T01:54:52;99431.47;;;20.46;65.48
62800;BME280;48842;51.046;13.796;2023-08-06T01:57:17;99435.19;;;20.43;65.95
62800;BME280;48842;51.046;13.796;2023-08-06T01:59:42;99434.31;;;20.43;65.69
62800;BME280;48842;51.046;13.796;2023-08-06T02:02:08;99431.66;;;20.43;65.81
62800;BME280;48842;51.046;13.796;2023-08-06T02:04:33;99428.22;;;20.40;65.93
62800;BME280;48842;51.046;13.796;2023-08-06T02:06:59;99436.19;;;20.40;65.84
62800;BME280;48842;51.046;13.796;2023-08-06T02:09:25;99436.19;;;20.40;66.19
62800;BME280;48842;51.046;13.796;2023-08-06T02:11:50;99437.94;;;20.42;66.12
62800;BME280;48842;51.046;13.796;2023-08-06T02:14:15;99444.19;;;20.40;65.90
62800;BME280;48842;51.046;13.796;2023-08-06T02:16:41;99445.28;;;20.36;66.50
62800;BME280;48842;51.046;13.796;2023-08-06T02:19:06;99444.25;;;20.39;66.39
62800;BME280;48842;51.046;13.796;2023-08-06T02:21:31;99444.09;;;20.42;66.53
62800;BME280;48842;51.046;13.796;2023-08-06T02:23:56;99444.19;;;20.40;66.82
62800;BME280;48842;51.046;13.796;2023-08-06T02:26:22;99436.19;;;20.40;66.76
62800;BME280;48842;51.046;13.796;2023-08-06T02:28:47;99429.06;;;20.41;66.79
62800;BME280;48842;51.046;13.796;2023-08-06T02:31:12;99429.16;;;20.39;66.68
62800;BME280;48842;51.046;13.796;2023-08-06T02:33:37;99427.50;;;20.37;67.23
62800;BME280;48842;51.046;13.796;2023-08-06T02:36:03;99430.16;;;20.37;66.95
62800;BME280;48842;51.046;13.796;2023-08-06T02:38:29;99414.19;;;20.37;66.53
62800;BME280;48842;51.046;13.796;2023-08-06T02:40:55;99415.16;;;20.36;66.47
62800;BME280;48842;51.046;13.796;2023-08-06T02:43:20;99419.59;;;20.35;66.21
62800;BME280;48842;51.046;13.796;2023-08-06T02:45:45;99409.91;;;20.34;66.08
62800;BME280;48842;51.046;13.796;2023-08-06T02:48:11;99412.66;;;20.33;66.07
62800;BME280;48842;51.046;13.796;2023-08-06T02:50:40;99406.63;;;20.29;66.34
62800;BME280;48842;51.046;13.796;2023-08-06T02:53:06;99404.94;;;20.28;66.24
62800;BME280;48842;51.046;13.796;2023-08-06T02:55:32;99398.72;;;20.28;66.23
62800;BME280;48842;51.046;13.796;2023-08-06T02:57:59;99409.38;;;20.28;66.13
62800;BME280;48842;51.046;13.796;2023-08-06T03:00:26;99403.19;;;20.27;66.16
62800;BME280;48842;51.046;13.796;2023-08-06T03:02:52;99400.44;;;20.29;66.24
62800;BME280;48842;51.046;13.796;2023-08-06T03:05:19;99401.31;;;20.29;66.19
62800;BME280;48842;51.046;13.796;2023-08-06T03:07:44;99388.88;;;20.30;66.10
62800;BME280;48842;51.046;13.796;2023-08-06T03:10:10;99387.06;;;20.30;65.96
62800;BME280;48842;51.046;13.796;2023-08-06T03:12:35;99391.53;;;20.30;65.80
62800;BME280;48842;51.046;13.796;2023-08-06T03:15:00;99395.97;;;20.29;65.80
62800;BME280;48842;51.046;13.796;2023-08-06T03:17:26;99381.00;;;20.28;66.13
62800;BME280;48842;51.046;13.796;2023-08-06T03:19:51;99381.00;;;20.28;65.90
62800;BME280;48842;51.046;13.796;2023-08-06T03:22:16;99383.66;;;20.28;66.03
62800;BME280;48842;51.046;13.796;2023-08-06T03:24:42;99373.00;;;20.28;66.01
62800;BME280;48842;51.046;13.796;2023-08-06T03:27:07;99369.47;;;20.28;66.12
62800;BME280;48842;51.046;13.796;2023-08-06T03:29:32;99362.28;;;20.30;66.26
62800;BME280;48842;51.046;13.796;2023-08-06T03:31:58;99364.94;;;20.30;65.87
62800;BME280;48842;51.046;13.796;2023-08-06T03:34:23;99367.53;;;20.31;65.91
62800;BME280;48842;51.046;13.796;2023-08-06T03:36:49;99355.06;;;20.32;65.53
62800;BME280;48842;51.046;13.796;2023-08-06T03:39:15;99358.56;;;20.32;66.07
62800;BME280;48842;51.046;13.796;2023-08-06T03:41:40;99355.25;;;20.29;65.91
62800;BME280;48842;51.046;13.796;2023-08-06T03:44:06;99356.09;;;20.29;65.84
62800;BME280;48842;51.046;13.796;2023-08-06T03:46:31;99342.78;;;20.29;65.87
62800;BME280;48842;51.046;13.796;2023-08-06T03:49:02;99342.78;;;20.29;65.83
62800;BME280;48842;51.046;13.796;2023-08-06T03:51:27;99337.47;;;20.29;65.97
62800;BME280;48842;51.046;13.796;2023-08-06T03:53:52;99334.81;;;20.29;65.92
62800;BME280;48842;51.046;13.796;2023-08-06T03:56:18;99334.97;;;20.26;66.09
62800;BME280;48842;51.046;13.796;2023-08-06T03:58:43;99337.78;;;20.23;66.07
62800;BME280;48842;51.046;13.796;2023-08-06T04:01:09;99330.75;;;20.22;66.10
62800;BME280;48842;51.046;13.796;2023-08-06T04:03:34;99322.94;;;20.19;66.03
62800;BME280;48842;51.046;13.796;2023-08-06T04:05:59;99325.84;;;20.14;65.64
62800;BME280;48842;51.046;13.796;2023-08-06T04:08:26;99313.63;;;20.10;66.04
62800;BME280;48842;51.046;13.796;2023-08-06T04:10:52;99314.53;;;20.11;66.04
62800;BME280;48842;51.046;13.796;2023-08-06T04:13:18;99307.47;;;20.10;65.85
62800;BME280;48842;51.046;13.796;2023-08-06T04:15:43;99306.53;;;20.11;65.94
62800;BME280;48842;51.046;13.796;2023-08-06T04:18:08;99294.88;;;20.13;66.44
62800;BME280;48842;51.046;13.796;2023-08-06T04:20:34;99294.69;;;20.16;66.23
62800;BME280;48842;51.046;13.796;2023-08-06T04:23:06;99302.53;;;20.19;66.26
62800;BME280;48842;51.046;13.796;2023-08-06T04:25:31;99304.16;;;20.22;66.29
62800;BME280;48842;51.046;13.796;2023-08-06T04:27:56;99302.22;;;20.26;66.03
62800;BME280;48842;51.046;13.796;2023-08-06T04:30:21;99291.56;;;20.26;65.93
62800;BME280;48842;51.046;13.796;2023-08-06T04:32:47;99287.19;;;20.25;66.04
62800;BME280;48842;51.046;13.796;2023-08-06T04:35:12;99289.00;;;20.24;66.05
62800;BME280;48842;51.046;13.796;2023-08-06T04:37:37;99282.72;;;20.25;65.68
62800;BME280;48842;51.046;13.796;2023-08-06T04:40:03;99283.59;;;20.26;65.87
62800;BME280;48842;51.046;13.796;2023-08-06T04:42:28;99283.75;;;20.22;65.70
62800;BME280;48842;51.046;13.796;2023-08-06T04:44:54;99276.63;;;20.23;65.86
62800;BME280;48842;51.046;13.796;2023-08-06T04:47:19;99278.53;;;20.21;65.92
62800;BME280;48842;51.046;13.796;2023-08-06T04:49:44;99276.78;;;20.20;65.92
62800;BME280;48842;51.046;13.796;2023-08-06T04:52:10;99274.13;;;20.20;66.17
62800;BME280;48842;51.046;13.796;2023-08-06T04:54:35;99270.53;;;20.21;66.24
62800;BME280;48842;51.046;13.796;2023-08-06T04:57:00;99272.88;;;20.27;66.12
62800;BME280;48842;51.046;13.796;2023-08-06T04:59:25;99271.94;;;20.28;66.23
62800;BME280;48842;51.046;13.796;2023-08-06T05:01:51;99261.13;;;20.31;66.08
62800;BME280;48842;51.046;13.796;2023-08-06T05:04:16;99266.28;;;20.34;65.90
62800;BME280;48842;51.046;13.796;2023-08-06T05:06:41;99263.44;;;20.37;66.03
62800;BME280;48842;51.046;13.796;2023-08-06T05:09:07;99260.72;;;20.39;65.90
62800;BME280;48842;51.046;13.796;2023-08-06T05:11:32;99256.16;;;20.41;66.06
62800;BME280;48842;51.046;13.796;2023-08-06T05:13:57;99262.19;;;20.45;66.01
62800;BME280;48842;51.046;13.796;2023-08-06T05:16:23;99264.94;;;20.43;65.73
62800;BME280;48842;51.046;13.796;2023-08-06T05:18:49;99260.63;;;20.40;65.57
62800;BME280;48842;51.046;13.796;2023-08-06T05:21:14;99259.78;;;20.40;65.80
62800;BME280;48842;51.046;13.796;2023-08-06T05:23:41;99260.63;;;20.40;65.50
62800;BME280;48842;51.046;13.796;2023-08-06T05:26:06;99257.88;;;20.42;65.89
62800;BME280;48842;51.046;13.796;2023-08-06T05:28:31;99253.31;;;20.44;65.50
62800;BME280;48842;51.046;13.796;2023-08-06T05:30:57;99240.09;;;20.43;65.43
62800;BME280;48842;51.046;13.796;2023-08-06T05:33:22;99244.50;;;20.44;65.22
62800;BME280;48842;51.046;13.796;2023-08-06T05:35:49;99234.03;;;20.40;65.00
62800;BME280;48842;51.046;13.796;2023-08-06T05:38:16;99231.34;;;20.40;65.16
62800;BME280;48842;51.046;13.796;2023-08-06T05:40:42;99229.47;;;20.43;64.67
62800;BME280;48842;51.046;13.796;2023-08-06T05:43:08;99233.84;;;20.44;64.83
62800;BME280;48842;51.046;13.796;2023-08-06T05:45:33;99227.59;;;20.45;64.52
62800;BME280;48842;51.046;13.796;2023-08-06T05:47:58;99233.84;;;20.44;64.69
62800;BME280;48842;51.046;13.796;2023-08-06T05:50:24;99228.53;;;20.44;64.76
62800;BME280;48842;51.046;13.796;2023-08-06T05:52:49;99233.75;;;20.45;64.64
62800;BME280;48842;51.046;13.796;2023-08-06T05:55:14;99224.94;;;20.45;65.00
62800;BME280;48842;51.046;13.796;2023-08-06T05:57:40;99230.25;;;20.45;64.89
62800;BME280;48842;51.046;13.796;2023-08-06T06:00:05;99234.59;;;20.46;64.93
62800;BME280;48842;51.046;13.796;2023-08-06T06:02:31;99233.69;;;20.47;64.73
62800;BME280;48842;51.046;13.796;2023-08-06T06:04:57;99235.41;;;20.48;64.89
62800;BME280;48842;51.046;13.796;2023-08-06T06:07:22;99241.56;;;20.48;64.71
62800;BME280;48842;51.046;13.796;2023-08-06T06:09:47;99237.22;;;20.47;64.76
62800;BME280;48842;51.046;13.796;2023-08-06T06:12:14;99238.91;;;20.48;65.03
62800;BME280;48842;51.046;13.796;2023-08-06T06:14:39;99237.13;;;20.49;65.12
62800;BME280;48842;51.046;13.796;2023-08-06T06:17:04;99237.13;;;20.49;65.07
62800;BME280;48842;51.046;13.796;2023-08-06T06:19:29;99244.22;;;20.48;64.67
62800;BME280;48842;51.046;13.796;2023-08-06T06:21:55;99240.56;;;20.51;64.69
62800;BME280;48842;51.046;13.796;2023-08-06T06:24:22;99237.72;;;20.54;64.73
62800;BME280;48842;51.046;13.796;2023-08-06T06:26:47;99238.34;;;20.59;65.14
62800;BME280;48842;51.046;13.796;2023-08-06T06:29:13;99234.47;;;20.65;64.86
62800;BME280;48842;51.046;13.796;2023-08-06T06:31:38;99229.69;;;20.71;64.95
62800;BME280;48842;51.046;13.796;2023-08-06T06:34:03;99223.06;;;20.79;64.82
62800;BME280;48842;51.046;13.796;2023-08-06T06:36:29;99228.03;;;20.85;64.45
62800;BME280;48842;51.046;13.796;2023-08-06T06:38:54;99223.50;;;20.87;64.23
62800;BME280;48842;51.046;13.796;2023-08-06T06:41:19;99226.94;;;20.89;64.22
62800;BME280;48842;51.046;13.796;2023-08-06T06:43:44;99226.84;;;20.90;63.96
62800;BME280;48842;51.046;13.796;2023-08-06T06:46:10;99228.47;;;20.93;64.08
62800;BME280;48842;51.046;13.796;2023-08-06T06:48:35;99238.94;;;20.96;64.08
62800;BME280;48842;51.046;13.796;2023-08-06T06:51:00;99234.38;;;20.98;64.48
62800;BME280;48842;51.046;13.796;2023-08-06T06:53:26;99232.50;;;21.00;64.55
62800;BME280;48842;51.046;13.796;2023-08-06T06:56:01;99242.13;;;21.03;64.15
62800;BME280;48842;51.046;13.796;2023-08-06T06:58:27;99242.03;;;21.04;64.25
62800;BME280;48842;51.046;13.796;2023-08-06T07:00:52;99241.06;;;21.05;63.81
62800;BME280;48842;51.046;13.796;2023-08-06T07:03:19;99239.38;;;21.04;64.17
62800;BME280;48842;51.046;13.796;2023-08-06T07:05:44;99241.06;;;21.05;63.98
62800;BME280;48842;51.046;13.796;2023-08-06T07:08:10;99241.06;;;21.05;64.22
62800;BME280;48842;51.046;13.796;2023-08-06T07:10:35;99242.63;;;21.09;64.24
62800;BME280;48842;51.046;13.796;2023-08-06T07:13:00;99246.06;;;21.12;64.24
62800;BME280;48842;51.046;13.796;2023-08-06T07:15:25;99244.00;;;21.17;64.17
62800;BME280;48842;51.046;13.796;2023-08-06T07:17:51;99242.78;;;21.22;64.18
62800;BME280;48842;51.046;13.796;2023-08-06T07:20:16;99239.84;;;21.27;63.96
62800;BME280;48842;51.046;13.796;2023-08-06T07:22:41;99247.47;;;21.33;63.61
62800;BME280;48842;51.046;13.796;2023-08-06T07:25:08;99245.59;;;21.35;63.28
62800;BME280;48842;51.046;13.796;2023-08-06T07:27:33;99243.09;;;21.32;63.96
62800;BME280;48842;51.046;13.796;2023-08-06T07:29:58;99235.97;;;21.33;63.98
62800;BME280;48842;51.046;13.796;2023-08-06T07:32:24;99237.59;;;21.35;63.92
62800;BME280;48842;51.046;13.796;2023-08-06T07:34:49;99233.81;;;21.39;63.74
62800;BME280;48842;51.046;13.796;2023-08-06T07:37:14;99241.88;;;21.54;63.09
62800;BME280;48842;51.046;13.796;2023-08-06T07:39:40;99236.84;;;21.48;63.51
62800;BME280;48842;51.046;13.796;2023-08-06T07:42:07;99233.44;;;21.45;63.67
62800;BME280;48842;51.046;13.796;2023-08-06T07:44:32;99236.00;;;21.47;63.87
62800;BME280;48842;51.046;13.796;2023-08-06T07:46:57;99225.25;;;21.49;63.35
62800;BME280;48842;51.046;13.796;2023-08-06T07:49:22;99227.09;;;21.48;62.93
62800;BME280;48842;51.046;13.796;2023-08-06T07:51:48;99221.22;;;21.57;62.55
62800;BME280;48842;51.046;13.796;2023-08-06T07:54:13;99225.44;;;21.45;62.86
62800;BME280;48842;51.046;13.796;2023-08-06T07:56:38;99228.13;;;21.45;62.99
62800;BME280;48842;51.046;13.796;2023-08-06T07:59:04;99230.78;;;21.45;62.64
62800;BME280;48842;51.046;13.796;2023-08-06T08:01:29;99220.31;;;21.42;62.55
62800;BME280;48842;51.046;13.796;2023-08-06T08:03:54;99222.97;;;21.42;62.19
62800;BME280;48842;51.046;13.796;2023-08-06T08:06:19;99223.16;;;21.39;62.21
62800;BME280;48842;51.046;13.796;2023-08-06T08:08:45;99217.22;;;21.34;62.19
62800;BME280;48842;51.046;13.796;2023-08-06T08:11:10;99220.25;;;21.28;62.36
62800;BME280;48842;51.046;13.796;2023-08-06T08:13:36;99210.72;;;21.24;62.47
62800;BME280;48842;51.046;13.796;2023-08-06T08:16:01;99219.66;;;21.23;62.69
62800;BME280;48842;51.046;13.796;2023-08-06T08:18:27;99208.81;;;21.26;62.42
62800;BME280;48842;51.046;13.796;2023-08-06T08:20:52;99209.50;;;21.30;62.61
62800;BME280;48842;51.046;13.796;2023-08-06T08:23:17;99208.38;;;21.34;62.40
62800;BME280;48842;51.046;13.796;2023-08-06T08:25:43;99205.94;;;21.45;62.30
62800;BME280;48842;51.046;13.796;2023-08-06T08:28:08;99198.19;;;21.40;62.55
62800;BME280;48842;51.046;13.796;2023-08-06T08:30:33;99195.19;;;21.47;62.38
62800;BME280;48842;51.046;13.796;2023-08-06T08:32:59;99193.13;;;21.52;62.29
62800;BME280;48842;51.046;13.796;2023-08-06T08:35:24;99183.25;;;21.54;62.04
62800;BME280;48842;51.046;13.796;2023-08-06T08:37:49;99181.34;;;21.56;61.51
62800;BME280;48842;51.046;13.796;2023-08-06T08:40:15;99181.34;;;21.56;61.55
62800;BME280;48842;51.046;13.796;2023-08-06T08:42:41;99179.63;;;21.55;61.64
62800;BME280;48842;51.046;13.796;2023-08-06T08:45:12;99178.16;;;21.49;61.74
62800;BME280;48842;51.046;13.796;2023-08-06T08:47:40;99177.66;;;21.42;61.47
62800;BME280;48842;51.046;13.796;2023-08-06T08:50:07;99181.84;;;21.32;61.75
62800;BME280;48842;51.046;13.796;2023-08-06T08:52:33;99172.59;;;21.23;62.29
62800;BME280;48842;51.046;13.796;2023-08-06T08:55:01;99174.56;;;21.20;62.67
62800;BME280;48842;51.046;13.796;2023-08-06T08:57:27;99169.41;;;21.17;62.29
62800;BME280;48842;51.046;13.796;2023-08-06T08:59:52;99170.72;;;21.09;62.17
62800;BME280;48842;51.046;13.796;2023-08-06T09:02:18;99164.63;;;21.07;62.49
62800;BME280;48842;51.046;13.796;2023-08-06T09:04:47;99168.75;;;21.13;62.77
62800;BME280;48842;51.046;13.796;2023-08-06T09:07:17;99171.13;;;21.18;61.94
62800;BME280;48842;51.046;13.796;2023-08-06T09:09:43;99166.75;;;21.17;62.07
62800;BME280;48842;51.046;13.796;2023-08-06T09:12:14;99165.81;;;21.18;62.27
62800;BME280;48842;51.046;13.796;2023-08-06T09:14:40;99169.22;;;21.20;61.94
62800;BME280;48842;51.046;13.796;2023-08-06T09:17:05;99170.94;;;21.21;61.59
62800;BME280;48842;51.046;13.796;2023-08-06T09:19:31;99167.34;;;21.22;61.80
62800;BME280;48842;51.046;13.796;2023-08-06T09:21:57;99157.72;;;21.19;61.46
62800;BME280;48842;51.046;13.796;2023-08-06T09:24:22;99172.44;;;21.10;61.56
62800;BME280;48842;51.046;13.796;2023-08-06T09:26:48;99160.63;;;21.00;61.78
62800;BME280;48842;51.046;13.796;2023-08-06T09:29:14;99154.88;;;20.92;61.81
62800;BME280;48842;51.046;13.796;2023-08-06T09:31:49;99162.28;;;20.87;61.97
62800;BME280;48842;51.046;13.796;2023-08-06T09:34:18;99155.84;;;20.91;62.35
62800;BME280;48842;51.046;13.796;2023-08-06T09:36:46;99162.59;;;20.97;62.38
62800;BME280;48842;51.046;13.796;2023-08-06T09:39:16;99159.78;;;21.00;62.05
62800;BME280;48842;51.046;13.796;2023-08-06T09:41:42;99155.56;;;20.96;62.03
62800;BME280;48842;51.046;13.796;2023-08-06T09:44:15;99154.13;;;20.90;62.17
62800;BME280;48842;51.046;13.796;2023-08-06T09:46:42;99157.91;;;20.86;62.15
62800;BME280;48842;51.046;13.796;2023-08-06T09:49:07;99151.97;;;20.81;62.22
62800;BME280;48842;51.046;13.796;2023-08-06T09:51:34;99152.16;;;20.78;62.21
62800;BME280;48842;51.046;13.796;2023-08-06T09:54:00;99150.44;;;20.77;62.65
62800;BME280;48842;51.046;13.796;2023-08-06T09:56:26;99148.38;;;20.82;63.22
62800;BME280;48842;51.046;13.796;2023-08-06T09:58:53;99142.34;;;20.94;62.86
62800;BME280;48842;51.046;13.796;2023-08-06T10:01:21;99145.22;;;21.05;62.75
62800;BME280;48842;51.046;13.796;2023-08-06T10:03:49;99141.06;;;21.16;63.16
62800;BME280;48842;51.046;13.796;2023-08-06T10:06:14;99133.19;;;21.28;62.86
62800;BME280;48842;51.046;13.796;2023-08-06T10:08:39;99135.97;;;21.41;62.73
62800;BME280;48842;51.046;13.796;2023-08-06T10:11:07;99137.16;;;21.52;62.75
62800;BME280;48842;51.046;13.796;2023-08-06T10:13:33;99125.09;;;21.60;62.23
62800;BME280;48842;51.046;13.796;2023-08-06T10:16:01;99124.03;;;21.63;61.81
62800;BME280;48842;51.046;13.796;2023-08-06T10:18:28;99136.53;;;21.63;61.47
62800;BME280;48842;51.046;13.796;2023-08-06T10:20:54;99124.25;;;21.60;61.51
62800;BME280;48842;51.046;13.796;2023-08-06T10:23:19;99120.59;;;21.61;61.09
62800;BME280;48842;51.046;13.796;2023-08-06T10:25:53;99122.91;;;21.67;60.86
62800;BME280;48842;51.046;13.796;2023-08-06T10:28:20;99118.81;;;21.76;60.58
62800;BME280;48842;51.046;13.796;2023-08-06T10:30:47;99106.91;;;21.82;60.38
62800;BME280;48842;51.046;13.796;2023-08-06T10:33:12;99114.72;;;21.85;60.09
62800;BME280;48842;51.046;13.796;2023-08-06T10:35:46;99108.41;;;21.86;59.98
62800;BME280;48842;51.046;13.796;2023-08-06T10:38:22;99094.34;;;21.84;59.45
62800;BME280;48842;51.046;13.796;2023-08-06T10:40:49;99101.19;;;21.88;59.74
62800;BME280;48842;51.046;13.796;2023-08-06T10:43:35;99088.63;;;21.90;59.68
62800;BME280;48842;51.046;13.796;2023-08-06T10:46:03;99089.94;;;21.97;59.53
62800;BME280;48842;51.046;13.796;2023-08-06T10:48:36;99089.63;;;22.02;59.25
62800;BME280;48842;51.046;13.796;2023-08-06T10:51:02;99088.28;;;22.09;58.90
62800;BME280;48842;51.046;13.796;2023-08-06T10:53:28;99087.03;;;22.14;59.23
62800;BME280;48842;51.046;13.796;2023-08-06T10:55:53;99081.03;;;22.25;59.23
62800;BME280;48842;51.046;13.796;2023-08-06T10:58:19;99075.56;;;22.41;58.94
62800;BME280;48842;51.046;13.796;2023-08-06T11:00:44;99073.25;;;22.49;58.56
62800;BME280;48842;51.046;13.796;2023-08-06T11:03:09;99070.47;;;22.51;58.47
62800;BME280;48842;51.046;13.796;2023-08-06T11:05:35;99068.47;;;22.55;58.47
62800;BME280;48842;51.046;13.796;2023-08-06T11:08:01;99065.69;;;22.56;57.93
62800;BME280;48842;51.046;13.796;2023-08-06T11:10:26;99058.00;;;22.52;57.57
62800;BME280;48842;51.046;13.796;2023-08-06T11:12:51;99062.78;;;22.46;57.76
62800;BME280;48842;51.046;13.796;2023-08-06T11:15:17;99063.94;;;22.42;57.81
62800;BME280;48842;51.046;13.796;2023-08-06T11:17:42;99062.22;;;22.41;57.90
62800;BME280;48842;51.046;13.796;2023-08-06T11:20:08;99060.63;;;22.39;57.57
62800;BME280;48842;51.046;13.796;2023-08-06T11:22:35;99049.06;;;22.38;57.28
62800;BME280;48842;51.046;13.796;2023-08-06T11:25:01;99048.03;;;22.41;57.21
62800;BME280;48842;51.046;13.796;2023-08-06T11:27:26;99046.88;;;22.45;56.80
62800;BME280;48842;51.046;13.796;2023-08-06T11:29:52;99047.59;;;22.47;56.94
62800;BME280;48842;51.046;13.796;2023-08-06T11:32:17;99050.94;;;22.51;56.85
62800;BME280;48842;51.046;13.796;2023-08-06T11:34:43;99052.03;;;22.61;56.98
62800;BME280;48842;51.046;13.796;2023-08-06T11:37:08;99048.00;;;22.68;57.02
62800;BME280;48842;51.046;13.796;2023-08-06T11:39:36;99039.56;;;22.74;56.41
62800;BME280;48842;51.046;13.796;2023-08-06T11:42:03;99048.88;;;22.81;56.44
62800;BME280;48842;51.046;13.796;2023-08-06T11:44:33;99044.28;;;22.83;55.47
62800;BME280;48842;51.046;13.796;2023-08-06T11:47:00;99047.06;;;22.82;55.59
62800;BME280;48842;51.046;13.796;2023-08-06T11:49:43;99044.69;;;22.77;54.96
62800;BME280;48842;51.046;13.796;2023-08-06T11:52:23;99043.53;;;22.81;55.23
62800;BME280;48842;51.046;13.796;2023-08-06T11:55:04;99035.63;;;22.80;54.87
62800;BME280;48842;51.046;13.796;2023-08-06T11:57:36;99046.66;;;22.88;55.19
62800;BME280;48842;51.046;13.796;2023-08-06T12:00:14;99050.81;;;22.92;54.90
62800;BME280;48842;51.046;13.796;2023-08-06T12:02:43;99051.91;;;22.90;54.89
62800;BME280;48842;51.046;13.796;2023-08-06T12:05:16;99048.47;;;22.88;54.75
62800;BME280;48842;51.046;13.796;2023-08-06T12:07:44;99047.72;;;22.86;54.52
62800;BME280;48842;51.046;13.796;2023-08-06T12:10:10;99048.66;;;22.84;54.88
62800;BME280;48842;51.046;13.796;2023-08-06T12:12:35;99041.22;;;22.90;54.86
62800;BME280;48842;51.046;13.796;2023-08-06T12:15:01;99042.59;;;22.95;54.47
62800;BME280;48842;51.046;13.796;2023-08-06T12:17:26;99036.41;;;22.95;54.09
62800;BME280;48842;51.046;13.796;2023-08-06T12:19:52;99037.56;;;22.91;54.23
62800;BME280;48842;51.046;13.796;2023-08-06T12:22:20;99038.84;;;22.85;54.31
62800;BME280;48842;51.046;13.796;2023-08-06T12:24:46;99037.47;;;22.79;54.53
62800;BME280;48842;51.046;13.796;2023-08-06T12:27:12;99039.38;;;22.77;54.82
62800;BME280;48842;51.046;13.796;2023-08-06T12:29:45;99041.81;;;22.80;54.63
62800;BME280;48842;51.046;13.796;2023-08-06T12:32:11;99035.53;;;22.81;54.34
62800;BME280;48842;51.046;13.796;2023-08-06T12:34:41;99028.78;;;22.76;54.02
62800;BME280;48842;51.046;13.796;2023-08-06T12:37:07;99032.31;;;22.76;54.07
62800;BME280;48842;51.046;13.796;2023-08-06T12:39:33;99032.19;;;22.78;54.08
62800;BME280;48842;51.046;13.796;2023-08-06T12:42:03;99021.00;;;22.86;54.32
62800;BME280;48842;51.046;13.796;2023-08-06T12:44:29;99019.22;;;22.99;54.30
62800;BME280;48842;51.046;13.796;2023-08-06T12:46:54;99015.38;;;23.03;53.62